createdAt,value
2022-10-07T00:01:02.211Z,18.70
2022-10-07T00:03:30.317Z,18.70
2022-10-07T00:06:13.642Z,18.70
2022-10-07T00:08:43.965Z,18.70
2022-10-07T00:11:14.264Z,18.60
2022-10-07T00:13:43.662Z,18.60
2022-10-07T00:16:14.313Z,18.60
2022-10-07T00:18:41.902Z,18.60
2022-10-07T00:21:12.077Z,18.60
2022-10-07T00:23:40.392Z,18.60
2022-10-07T00:26:10.930Z,18.60
2022-10-07T00:28:38.520Z,18.50
2022-10-07T00:31:13.696Z,18.50
2022-10-07T00:33:41.791Z,18.50
2022-10-07T00:36:18.287Z,18.50
2022-10-07T00:38:46.048Z,18.50
2022-10-07T00:41:21.879Z,18.50
2022-10-07T00:43:49.464Z,18.40
2022-10-07T00:46:23.263Z,18.40
2022-10-07T00:48:50.834Z,18.40
2022-10-07T00:51:18.786Z,18.40
2022-10-07T00:53:51.013Z,18.40
2022-10-07T00:56:18.673Z,18.40
2022-10-07T00:58:47.953Z,18.40
2022-10-07T01:01:15.901Z,18.40
2022-10-07T01:03:45.963Z,18.40
2022-10-07T01:06:13.161Z,18.30
2022-10-07T01:08:40.747Z,18.30
2022-10-07T01:11:32.176Z,18.30
2022-10-07T01:14:31.055Z,18.30
2022-10-07T01:17:32.972Z,18.20
2022-10-07T01:20:00.192Z,18.20
2022-10-07T01:22:39.207Z,18.20
2022-10-07T01:25:42.694Z,18.20
2022-10-07T01:28:29.270Z,18.20
2022-10-07T01:31:00.519Z,18.20
2022-10-07T01:33:32.444Z,18.20
2022-10-07T01:36:07.275Z,18.10
2022-10-07T01:38:36.969Z,18.10
2022-10-07T01:41:10.290Z,18.10
2022-10-07T01:43:38.904Z,18.10
2022-10-07T01:46:09.848Z,18.10
2022-10-07T01:48:37.264Z,18.00
2022-10-07T01:51:09.050Z,18.00
2022-10-07T01:53:42.069Z,18.00
2022-10-07T01:56:28.425Z,18.00
2022-10-07T01:59:11.173Z,17.90
2022-10-07T02:01:53.822Z,17.90
2022-10-07T02:04:33.351Z,17.90
2022-10-07T02:07:36.869Z,17.90
2022-10-07T02:10:04.389Z,17.90
2022-10-07T02:12:51.587Z,17.90
2022-10-07T02:15:34.872Z,17.90
2022-10-07T02:18:07.416Z,17.90
2022-10-07T02:20:39.774Z,17.80
2022-10-07T02:23:12.854Z,17.80
2022-10-07T02:25:45.772Z,17.80
2022-10-07T02:28:16.225Z,17.70
2022-10-07T02:30:47.886Z,17.70
2022-10-07T02:33:15.677Z,17.60
2022-10-07T02:35:49.686Z,17.60
2022-10-07T02:38:18.705Z,17.60
2022-10-07T02:41:04.469Z,17.60
2022-10-07T02:43:44.756Z,17.60
2022-10-07T02:46:32.797Z,17.50
2022-10-07T02:49:07.861Z,17.60
2022-10-07T02:52:05.463Z,17.50
2022-10-07T02:54:58.039Z,17.60
2022-10-07T02:57:31.053Z,17.60
2022-10-07T03:00:01.189Z,17.60
2022-10-07T03:02:40.837Z,17.70
2022-10-07T03:05:09.443Z,17.60
2022-10-07T03:07:37.284Z,17.60
2022-10-07T03:10:09.379Z,17.60
2022-10-07T03:12:37.218Z,17.60
2022-10-07T03:15:04.819Z,17.60
2022-10-07T03:17:32.172Z,17.60
2022-10-07T03:19:59.837Z,17.60
2022-10-07T03:22:27.485Z,17.50
2022-10-07T03:24:54.788Z,17.50
2022-10-07T03:27:22.033Z,17.50
2022-10-07T03:29:50.293Z,17.50
2022-10-07T03:32:18.072Z,17.50
2022-10-07T03:34:45.497Z,17.50
2022-10-07T03:37:12.691Z,17.50
2022-10-07T03:39:39.970Z,17.50
2022-10-07T03:42:07.184Z,17.50
2022-10-07T03:44:35.685Z,17.50
2022-10-07T03:47:07.599Z,17.50
2022-10-07T03:49:40.264Z,17.50
2022-10-07T03:52:07.416Z,17.50
2022-10-07T03:54:34.768Z,17.50
2022-10-07T03:57:01.964Z,17.50
2022-10-07T03:59:29.462Z,17.50
2022-10-07T04:01:56.944Z,17.50
2022-10-07T04:04:24.352Z,17.50
2022-10-07T04:06:51.924Z,17.50
2022-10-07T04:09:19.166Z,17.50
2022-10-07T04:11:46.385Z,17.50
2022-10-07T04:14:13.954Z,17.50
2022-10-07T04:16:42.217Z,17.40
2022-10-07T04:19:11.907Z,17.40
2022-10-07T04:21:39.184Z,17.40
2022-10-07T04:24:06.492Z,17.40
2022-10-07T04:26:35.620Z,17.40
2022-10-07T04:29:02.851Z,17.40
2022-10-07T04:31:30.651Z,17.40
2022-10-07T04:34:02.825Z,17.40
2022-10-07T04:36:36.039Z,17.40
2022-10-07T04:39:27.086Z,17.40
2022-10-07T04:42:06.022Z,17.40
2022-10-07T04:44:34.270Z,17.40
2022-10-07T04:47:08.082Z,17.30
2022-10-07T04:49:38.365Z,17.30
2022-10-07T04:52:08.506Z,17.30
2022-10-07T04:54:39.512Z,17.30
2022-10-07T04:57:10.222Z,17.30
2022-10-07T04:59:42.493Z,17.30
2022-10-07T05:02:11.960Z,17.30
2022-10-07T05:04:39.505Z,17.20
2022-10-07T05:07:06.664Z,17.20
2022-10-07T05:09:35.930Z,17.20
2022-10-07T05:12:03.273Z,17.20
2022-10-07T05:14:33.007Z,17.30
2022-10-07T05:17:01.149Z,17.30
2022-10-07T05:19:32.837Z,17.30
2022-10-07T05:22:00.117Z,17.20
2022-10-07T05:24:27.564Z,17.30
2022-10-07T05:26:55.342Z,17.30
2022-10-07T05:29:22.883Z,17.40
2022-10-07T05:31:53.765Z,17.50
2022-10-07T05:34:24.220Z,17.60
2022-10-07T05:36:53.375Z,17.70
2022-10-07T05:39:20.784Z,17.80
2022-10-07T05:41:51.930Z,17.80
2022-10-07T05:44:25.347Z,17.90
2022-10-07T05:46:55.480Z,18.10
2022-10-07T05:49:23.328Z,18.20
2022-10-07T05:51:51.617Z,18.30
2022-10-07T05:54:18.995Z,18.40
2022-10-07T05:56:46.563Z,18.50
2022-10-07T05:59:15.853Z,18.60
2022-10-07T06:01:45.343Z,18.70
2022-10-07T06:04:19.348Z,18.70
2022-10-07T06:06:48.547Z,18.90
2022-10-07T06:09:34.388Z,19.00
2022-10-07T06:12:25.665Z,19.10
2022-10-07T06:14:54.800Z,19.20
2022-10-07T06:17:22.617Z,19.40
2022-10-07T06:19:51.874Z,19.50
2022-10-07T06:22:21.916Z,19.60
2022-10-07T06:24:52.300Z,19.80
2022-10-07T06:27:20.198Z,19.90
2022-10-07T06:29:47.556Z,20.10
2022-10-07T06:32:14.891Z,20.20
2022-10-07T06:34:45.083Z,20.40
2022-10-07T06:37:13.420Z,20.50
2022-10-07T06:39:41.406Z,20.50
2022-10-07T06:42:09.549Z,20.60
2022-10-07T06:44:59.533Z,20.70
2022-10-07T06:47:26.942Z,20.90
2022-10-07T06:49:54.270Z,21.00
2022-10-07T06:52:21.591Z,21.10
2022-10-07T06:54:48.839Z,21.20
2022-10-07T06:57:43.691Z,21.30
2022-10-07T07:00:06.262Z,21.40
2022-10-07T07:02:36.392Z,21.50
2022-10-07T07:05:08.229Z,21.60
2022-10-07T07:07:36.033Z,21.70
2022-10-07T07:10:04.091Z,21.80
2022-10-07T07:12:33.441Z,21.90
2022-10-07T07:15:00.542Z,21.90
2022-10-07T07:17:27.896Z,21.90
2022-10-07T07:19:56.585Z,21.80
2022-10-07T07:22:23.810Z,21.80
2022-10-07T07:24:51.282Z,21.90
2022-10-07T07:27:18.837Z,21.90
2022-10-07T07:29:46.328Z,21.90
2022-10-07T07:32:13.662Z,22.00
2022-10-07T07:34:43.456Z,22.20
2022-10-07T07:37:15.095Z,22.30
2022-10-07T07:39:47.453Z,22.40
2022-10-07T07:42:19.013Z,22.60
2022-10-07T07:44:48.066Z,22.70
2022-10-07T07:47:17.344Z,22.70
2022-10-07T07:49:46.171Z,22.80
2022-10-07T07:52:20.585Z,22.90
2022-10-07T07:54:49.026Z,23.00
2022-10-07T07:57:16.612Z,23.10
2022-10-07T07:59:43.739Z,23.20
2022-10-07T08:02:13.769Z,23.30
2022-10-07T08:04:44.517Z,23.30
2022-10-07T08:07:15.083Z,23.40
2022-10-07T08:09:45.458Z,23.50
2022-10-07T08:12:17.228Z,23.50
2022-10-07T08:14:44.507Z,23.60
2022-10-07T08:17:13.246Z,23.60
2022-10-07T08:19:42.560Z,23.60
2022-10-07T08:22:10.502Z,23.70
2022-10-07T08:24:37.888Z,23.70
2022-10-07T08:27:05.489Z,23.70
2022-10-07T08:29:32.849Z,23.60
2022-10-07T08:31:59.982Z,23.50
2022-10-07T08:34:27.366Z,23.70
2022-10-07T08:36:56.509Z,23.90
2022-10-07T08:39:24.767Z,24.10
2022-10-07T08:42:13.633Z,24.00
2022-10-07T08:44:44.555Z,24.00
2022-10-07T08:47:48.449Z,23.90
2022-10-07T08:50:31.042Z,24.10
2022-10-07T08:53:05.846Z,24.00
2022-10-07T08:55:45.059Z,24.10
2022-10-07T08:58:29.906Z,24.20
2022-10-07T09:01:07.432Z,24.40
2022-10-07T09:04:06.075Z,24.30
2022-10-07T09:07:04.235Z,24.20
2022-10-07T09:09:53.910Z,24.30
2022-10-07T09:12:50.584Z,24.30
2022-10-07T09:15:23.973Z,24.40
2022-10-07T09:17:59.405Z,24.30
2022-10-07T09:20:40.233Z,24.30
2022-10-07T09:23:12.920Z,24.50
2022-10-07T09:25:44.302Z,24.60
2022-10-07T09:28:17.287Z,24.60
2022-10-07T09:30:44.844Z,24.70
2022-10-07T09:33:18.908Z,24.80
2022-10-07T09:35:57.572Z,24.70
2022-10-07T09:38:37.117Z,24.70
2022-10-07T09:41:31.992Z,24.70
2022-10-07T09:44:05.603Z,24.70
2022-10-07T09:46:52.676Z,24.80
2022-10-07T09:49:29.025Z,24.90
2022-10-07T09:52:11.256Z,25.00
2022-10-07T09:54:46.825Z,24.80
2022-10-07T09:57:31.199Z,24.90
2022-10-07T10:00:13.828Z,24.80
2022-10-07T10:03:05.179Z,24.90
2022-10-07T10:05:35.289Z,24.90
2022-10-07T10:08:13.701Z,24.70
2022-10-07T10:10:51.548Z,24.80
2022-10-07T10:13:35.358Z,24.80
2022-10-07T10:16:06.169Z,24.70
2022-10-07T10:18:40.588Z,24.60
2022-10-07T10:21:28.898Z,24.60
2022-10-07T10:23:59.413Z,24.80
2022-10-07T10:26:34.676Z,24.80
2022-10-07T10:29:32.026Z,24.80
2022-10-07T10:32:02.597Z,24.80
2022-10-07T10:35:03.336Z,24.90
2022-10-07T10:37:48.309Z,25.10
2022-10-07T10:40:57.824Z,25.20
2022-10-07T10:43:25.002Z,25.30
2022-10-07T10:46:16.164Z,25.40
2022-10-07T10:49:01.796Z,25.70
2022-10-07T10:51:44.352Z,25.70
2022-10-07T10:54:18.133Z,26.10
2022-10-07T10:56:54.513Z,26.50
2022-10-07T10:59:49.636Z,27.50
2022-10-07T11:02:29.609Z,27.80
2022-10-07T11:05:17.589Z,28.50
2022-10-07T11:07:51.681Z,28.40
2022-10-07T11:10:26.390Z,29.00
2022-10-07T11:13:00.363Z,29.40
2022-10-07T11:15:33.663Z,29.60
2022-10-07T11:18:14.468Z,29.30
2022-10-07T11:20:48.305Z,29.10
2022-10-07T11:23:37.157Z,29.60
2022-10-07T11:26:29.986Z,29.50
2022-10-07T11:29:06.022Z,29.50
2022-10-07T11:31:47.870Z,29.50
2022-10-07T11:35:13.792Z,29.60
2022-10-07T11:37:54.780Z,29.40
2022-10-07T11:40:31.018Z,29.60
2022-10-07T11:43:09.262Z,29.30
2022-10-07T11:45:50.220Z,29.50
2022-10-07T11:48:21.847Z,29.60
2022-10-07T11:50:56.072Z,29.60
2022-10-07T11:53:27.354Z,29.50
2022-10-07T11:56:12.645Z,29.40
2022-10-07T11:58:40.062Z,29.00
2022-10-07T12:01:25.588Z,28.90
2022-10-07T12:03:54.904Z,29.40
2022-10-07T12:06:22.129Z,28.70
2022-10-07T12:08:49.612Z,28.50
2022-10-07T12:11:19.865Z,28.30
2022-10-07T12:14:25.617Z,28.50
2022-10-07T12:16:55.411Z,29.30
2022-10-07T12:19:23.988Z,29.90
2022-10-07T12:22:00.390Z,29.90
2022-10-07T12:24:29.075Z,30.20
2022-10-07T12:27:06.993Z,30.50
2022-10-07T12:29:51.112Z,30.10
2022-10-07T12:32:40.436Z,30.00
2022-10-07T12:35:30.235Z,29.90
2022-10-07T12:38:18.817Z,29.50
2022-10-07T12:40:51.873Z,29.90
2022-10-07T12:43:34.648Z,30.10
2022-10-07T12:46:07.729Z,29.80
2022-10-07T12:48:45.673Z,29.80
2022-10-07T12:51:27.100Z,30.30
2022-10-07T12:53:56.189Z,30.60
2022-10-07T12:56:30.290Z,30.80
2022-10-07T12:59:34.912Z,31.10
2022-10-07T13:02:42.125Z,30.80
2022-10-07T13:05:19.338Z,31.50
2022-10-07T13:08:01.388Z,30.80
2022-10-07T13:10:37.549Z,30.10
2022-10-07T13:13:10.246Z,30.20
2022-10-07T13:16:08.646Z,30.50
2022-10-07T13:18:57.782Z,30.10
2022-10-07T13:21:33.364Z,28.80
2022-10-07T13:24:00.802Z,27.40
2022-10-07T13:26:28.198Z,26.50
2022-10-07T13:28:57.521Z,26.20
2022-10-07T13:31:31.084Z,25.90
2022-10-07T13:34:00.369Z,25.40
2022-10-07T13:36:30.899Z,25.30
2022-10-07T13:39:16.230Z,24.90
2022-10-07T13:41:47.464Z,24.80
2022-10-07T13:44:18.505Z,24.60
2022-10-07T13:47:07.291Z,24.50
2022-10-07T13:49:38.869Z,24.30
2022-10-07T13:52:17.525Z,24.20
2022-10-07T13:54:51.861Z,24.30
2022-10-07T13:57:21.466Z,24.40
2022-10-07T13:59:51.880Z,24.40
2022-10-07T14:02:20.760Z,24.20
2022-10-07T14:05:01.622Z,24.10
2022-10-07T14:07:29.612Z,24.00
2022-10-07T14:09:59.658Z,24.10
2022-10-07T14:12:35.035Z,24.20
2022-10-07T14:15:21.707Z,24.20
2022-10-07T14:17:55.361Z,24.10
2022-10-07T14:20:37.960Z,24.00
2022-10-07T14:23:26.136Z,24.00
2022-10-07T14:25:59.428Z,24.00
2022-10-07T14:28:31.512Z,24.00
2022-10-07T14:31:24.113Z,23.90
2022-10-07T14:34:15.907Z,23.80
2022-10-07T14:37:05.235Z,23.80
2022-10-07T14:39:47.929Z,23.90
2022-10-07T14:42:18.326Z,23.80
2022-10-07T14:44:45.916Z,23.70
2022-10-07T14:47:13.368Z,23.60
2022-10-07T14:49:43.428Z,23.50
2022-10-07T14:52:31.691Z,23.50
2022-10-07T14:55:01.501Z,23.50
2022-10-07T14:57:28.730Z,23.50
2022-10-07T14:59:56.345Z,23.60
2022-10-07T15:02:24.428Z,23.60
2022-10-07T15:04:51.810Z,23.60
2022-10-07T15:07:19.509Z,23.50
2022-10-07T15:09:46.966Z,23.40
2022-10-07T15:12:16.249Z,23.40
2022-10-07T15:14:43.625Z,23.50
2022-10-07T15:17:15.570Z,23.50
2022-10-07T15:19:42.842Z,23.40
2022-10-07T15:22:10.049Z,23.40
2022-10-07T15:24:37.556Z,23.40
2022-10-07T15:27:06.623Z,23.30
2022-10-07T15:29:33.822Z,23.30
2022-10-07T15:32:01.017Z,23.30
2022-10-07T15:34:28.242Z,23.30
2022-10-07T15:36:55.532Z,23.20
2022-10-07T15:39:22.771Z,23.20
2022-10-07T15:41:50.062Z,23.10
2022-10-07T15:44:19.761Z,23.10
2022-10-07T15:46:48.456Z,23.00
2022-10-07T15:49:19.118Z,23.00
2022-10-07T15:51:46.909Z,22.90
2022-10-07T15:54:14.633Z,22.90
2022-10-07T15:56:42.965Z,22.80
2022-10-07T15:59:10.597Z,22.80
2022-10-07T16:01:37.823Z,22.80
2022-10-07T16:04:06.144Z,22.80
2022-10-07T16:06:35.668Z,22.80
2022-10-07T16:09:04.017Z,22.80
2022-10-07T16:11:33.340Z,22.80
2022-10-07T16:14:02.270Z,22.70
2022-10-07T16:16:31.535Z,22.70
2022-10-07T16:19:00.527Z,22.60
2022-10-07T16:21:33.729Z,22.50
2022-10-07T16:24:06.974Z,22.40
2022-10-07T16:26:36.035Z,22.40
2022-10-07T16:29:24.711Z,22.40
2022-10-07T16:31:58.178Z,22.30
2022-10-07T16:34:27.294Z,22.30
2022-10-07T16:36:55.442Z,22.20
2022-10-07T16:39:22.851Z,22.20
2022-10-07T16:41:53.838Z,22.20
2022-10-07T16:44:22.590Z,22.10
2022-10-07T16:46:50.027Z,22.10
2022-10-07T16:49:18.726Z,22.00
2022-10-07T16:51:46.611Z,22.10
2022-10-07T16:54:16.529Z,22.00
2022-10-07T16:56:47.153Z,22.00
2022-10-07T16:59:23.901Z,22.00
2022-10-07T17:01:56.680Z,21.90
2022-10-07T17:04:25.064Z,21.90
2022-10-07T17:06:53.235Z,21.90
2022-10-07T17:09:22.273Z,21.90
2022-10-07T17:11:49.647Z,21.90
2022-10-07T17:14:20.028Z,21.90
2022-10-07T17:16:51.552Z,21.90
2022-10-07T17:19:22.139Z,21.90
2022-10-07T17:21:53.209Z,21.90
2022-10-07T17:24:23.922Z,21.90
2022-10-07T17:26:55.262Z,21.90
2022-10-07T17:29:26.352Z,21.90
2022-10-07T17:31:54.170Z,21.80
2022-10-07T17:34:22.449Z,21.80
2022-10-07T17:36:50.593Z,21.80
2022-10-07T17:39:20.299Z,21.80
2022-10-07T17:41:48.272Z,21.80
2022-10-07T17:44:15.744Z,21.80
2022-10-07T17:46:43.372Z,21.70
2022-10-07T17:49:14.553Z,21.70
2022-10-07T17:51:45.688Z,21.70
2022-10-07T17:54:14.061Z,21.70
2022-10-07T17:56:44.727Z,21.70
2022-10-07T17:59:13.414Z,21.60
2022-10-07T18:01:45.131Z,21.60
2022-10-07T18:04:15.953Z,21.60
2022-10-07T18:06:47.073Z,21.50
2022-10-07T18:09:21.017Z,21.50
2022-10-07T18:12:11.561Z,21.40
2022-10-07T18:14:57.538Z,21.40
2022-10-07T18:17:25.030Z,21.40
2022-10-07T18:19:52.505Z,21.40
2022-10-07T18:22:20.304Z,21.30
2022-10-07T18:24:47.623Z,21.30
2022-10-07T18:27:15.916Z,21.30
2022-10-07T18:29:43.152Z,21.30
2022-10-07T18:32:10.542Z,21.30
2022-10-07T18:34:38.058Z,21.30
2022-10-07T18:37:05.284Z,21.20
2022-10-07T18:39:32.485Z,21.30
2022-10-07T18:41:59.812Z,21.30
2022-10-07T18:44:27.553Z,21.30
2022-10-07T18:46:55.318Z,21.30
2022-10-07T18:49:22.799Z,21.20
2022-10-07T18:51:53.497Z,21.20
2022-10-07T18:54:21.266Z,21.20
2022-10-07T18:56:50.059Z,21.10
2022-10-07T18:59:18.857Z,21.10
2022-10-07T19:01:50.502Z,21.00
2022-10-07T19:04:19.503Z,21.00
2022-10-07T19:06:47.495Z,21.00
2022-10-07T19:09:18.353Z,21.00
2022-10-07T19:11:45.812Z,20.90
2022-10-07T19:14:13.949Z,20.90
2022-10-07T19:16:43.900Z,20.90
2022-10-07T19:19:21.774Z,20.90
2022-10-07T19:21:51.827Z,20.90
2022-10-07T19:24:19.973Z,20.90
2022-10-07T19:26:50.053Z,20.80
2022-10-07T19:29:18.327Z,20.80
2022-10-07T19:31:50.169Z,20.90
2022-10-07T19:34:22.632Z,20.80
2022-10-07T19:36:50.761Z,20.90
2022-10-07T19:39:21.305Z,20.80
2022-10-07T19:41:51.819Z,20.80
2022-10-07T19:44:19.571Z,20.80
2022-10-07T19:46:50.344Z,20.80
2022-10-07T19:49:20.754Z,20.80
2022-10-07T19:51:47.964Z,20.80
2022-10-07T19:54:15.119Z,20.80
2022-10-07T19:56:42.863Z,20.80
2022-10-07T19:59:12.666Z,20.80
2022-10-07T20:01:43.043Z,20.80
2022-10-07T20:04:16.403Z,20.80
2022-10-07T20:06:44.928Z,20.80
2022-10-07T20:09:15.014Z,20.70
2022-10-07T20:11:43.264Z,20.70
2022-10-07T20:14:15.619Z,20.70
2022-10-07T20:16:46.062Z,20.60
2022-10-07T20:19:16.634Z,20.60
2022-10-07T20:21:45.266Z,20.50
2022-10-07T20:24:14.813Z,20.50
2022-10-07T20:26:44.635Z,20.50
2022-10-07T20:29:13.985Z,20.40
2022-10-07T20:31:42.301Z,20.40
2022-10-07T20:34:15.126Z,20.40
2022-10-07T20:36:42.878Z,20.40
2022-10-07T20:39:36.650Z,20.40
2022-10-07T20:42:26.718Z,20.40
2022-10-07T20:45:07.445Z,20.40
2022-10-07T20:47:35.633Z,20.40
2022-10-07T20:50:03.239Z,20.30
2022-10-07T20:52:33.291Z,20.30
2022-10-07T20:55:00.506Z,20.20
2022-10-07T20:57:34.088Z,20.20
2022-10-07T21:00:01.371Z,20.10
2022-10-07T21:02:30.258Z,20.10
2022-10-07T21:04:59.480Z,20.00
2022-10-07T21:07:26.727Z,20.00
2022-10-07T21:09:56.454Z,20.00
2022-10-07T21:12:27.618Z,19.90
2022-10-07T21:15:00.640Z,19.90
2022-10-07T21:17:27.861Z,19.90
2022-10-07T21:19:56.074Z,19.90
2022-10-07T21:22:24.007Z,19.90
2022-10-07T21:24:52.863Z,19.80
2022-10-07T21:27:20.406Z,19.80
2022-10-07T21:29:48.849Z,19.70
2022-10-07T21:32:16.199Z,19.70
2022-10-07T21:34:49.706Z,19.70
2022-10-07T21:37:19.725Z,19.70
2022-10-07T21:39:47.286Z,19.60
2022-10-07T21:42:15.825Z,19.60
2022-10-07T21:44:44.574Z,19.60
2022-10-07T21:47:12.386Z,19.60
2022-10-07T21:49:39.615Z,19.60
2022-10-07T21:52:08.097Z,19.50
2022-10-07T21:54:38.516Z,19.50
2022-10-07T21:57:05.784Z,19.50
2022-10-07T21:59:35.228Z,19.50
2022-10-07T22:02:02.929Z,19.40
2022-10-07T22:04:30.984Z,19.40
2022-10-07T22:07:17.237Z,19.30
2022-10-07T22:09:44.504Z,19.30
2022-10-07T22:12:11.680Z,19.30
2022-10-07T22:14:39.800Z,19.20
2022-10-07T22:17:07.898Z,19.20
2022-10-07T22:19:35.108Z,19.20
2022-10-07T22:22:02.247Z,19.20
2022-10-07T22:24:29.654Z,19.20
2022-10-07T22:27:00.278Z,19.20
2022-10-07T22:29:28.528Z,19.20
2022-10-07T22:31:55.818Z,19.20
2022-10-07T22:34:42.799Z,19.20
2022-10-07T22:37:10.377Z,19.20
2022-10-07T22:39:37.848Z,19.20
2022-10-07T22:42:05.422Z,19.20
2022-10-07T22:44:33.406Z,19.10
2022-10-07T22:47:00.989Z,19.10
2022-10-07T22:49:30.275Z,19.00
2022-10-07T22:51:59.804Z,19.00
2022-10-07T22:54:27.457Z,19.00
2022-10-07T22:56:55.054Z,19.00
2022-10-07T22:59:22.201Z,19.00
2022-10-07T23:01:49.403Z,18.90
2022-10-07T23:04:20.358Z,18.90
2022-10-07T23:06:47.750Z,18.90
2022-10-07T23:09:15.553Z,18.90
2022-10-07T23:11:42.946Z,18.90
2022-10-07T23:14:10.222Z,18.90
2022-10-07T23:16:38.266Z,18.90
2022-10-07T23:19:05.467Z,18.90
2022-10-07T23:21:35.787Z,18.80
2022-10-07T23:24:07.705Z,18.80
2022-10-07T23:26:36.521Z,18.80
2022-10-07T23:29:04.351Z,18.80
2022-10-07T23:31:32.729Z,18.80
2022-10-07T23:34:01.433Z,18.70
2022-10-07T23:36:29.735Z,18.80
2022-10-07T23:38:59.132Z,18.80
2022-10-07T23:41:29.266Z,18.70
2022-10-07T23:43:58.858Z,18.70
2022-10-07T23:46:27.703Z,18.70
2022-10-07T23:48:56.260Z,18.70
2022-10-07T23:51:26.195Z,18.70
2022-10-07T23:53:55.646Z,18.70
2022-10-07T23:56:23.110Z,18.70
2022-10-07T23:58:51.277Z,18.70
